Time;durP1;ratioP1;P1;durP2;ratioP2;P2;SDS_P1;SDS_P2;PMS_P1;PMS_P2;Temp;Humidity;BMP_temperature;BMP_pressure;BME280_temperature;BME280_humidity;BME280_pressure;Samples;Min_cycle;Max_cycle;Signal;HPM_P1;HPM_P2
2022/07/06 00:01:43;;;;;;;3.83;0.60;;;14.20;99.90;;;;;;5084507;28;20047;-67
2022/07/06 00:04:09;;;;;;;6.70;0.93;;;14.30;99.90;;;;;;5084697;28;20032;-67
2022/07/06 00:06:34;;;;;;;4.00;0.40;;;14.20;99.90;;;;;;5075868;28;20067;-67
2022/07/06 00:09:00;;;;;;;7.15;0.70;;;14.30;99.90;;;;;;5079868;28;20047;-68
2022/07/06 00:11:26;;;;;;;3.03;0.57;;;14.30;99.90;;;;;;5069816;28;20040;-67
2022/07/06 00:13:52;;;;;;;4.38;0.47;;;14.30;99.90;;;;;;5084230;28;20024;-67
2022/07/06 00:16:18;;;;;;;3.80;0.50;;;14.30;99.90;;;;;;5085198;28;20188;-67
2022/07/06 00:18:44;;;;;;;2.25;0.50;;;14.30;99.90;;;;;;5081249;28;20464;-67
2022/07/06 00:21:10;;;;;;;3.67;0.70;;;14.30;99.90;;;;;;5084076;28;20123;-67
2022/07/06 00:23:35;;;;;;;6.30;0.60;;;14.20;99.90;;;;;;5069671;28;20075;-67
2022/07/06 00:26:01;;;;;;;3.17;0.52;;;14.20;99.90;;;;;;5067837;28;20035;-67
2022/07/06 00:28:27;;;;;;;7.68;1.90;;;14.20;99.90;;;;;;5066853;28;20031;-67
2022/07/06 00:30:53;;;;;;;5.00;0.60;;;14.30;99.90;;;;;;5066998;28;20127;-67
2022/07/06 00:33:19;;;;;;;3.33;0.50;;;14.20;99.90;;;;;;5062495;28;20094;-67
2022/07/06 00:35:44;;;;;;;3.08;0.65;;;14.20;99.90;;;;;;5083455;28;20150;-67
2022/07/06 00:38:10;;;;;;;4.18;0.40;;;14.30;99.90;;;;;;5065362;28;20169;-67
2022/07/06 00:40:36;;;;;;;7.05;0.77;;;14.20;99.90;;;;;;5062937;28;20043;-67
2022/07/06 00:43:01;;;;;;;4.88;0.82;;;14.30;99.90;;;;;;5083890;28;20048;-67
2022/07/06 00:45:27;;;;;;;5.80;1.08;;;14.30;99.90;;;;;;5081471;28;20198;-67
2022/07/06 00:47:53;;;;;;;3.63;0.80;;;14.30;99.90;;;;;;5062869;28;20367;-67
2022/07/06 00:50:22;;;;;;;4.97;0.85;;;14.30;99.90;;;;;;5064154;28;20077;-67
2022/07/06 00:52:48;;;;;;;4.35;0.95;;;14.30;99.90;;;;;;5064865;28;20058;-67
2022/07/06 00:55:16;;;;;;;7.95;0.77;;;14.30;99.90;;;;;;5085606;28;20036;-67
2022/07/06 00:57:42;;;;;;;2.13;0.50;;;14.30;99.90;;;;;;5064568;28;20505;-67
2022/07/06 01:00:11;;;;;;;6.10;0.68;;;14.20;99.90;;;;;;5063221;28;20043;-67
2022/07/06 01:02:37;;;;;;;3.17;0.60;;;14.30;99.90;;;;;;5080773;28;20127;-67
2022/07/06 01:05:07;;;;;;;4.30;0.50;;;14.30;99.90;;;;;;5083646;28;20123;-67
2022/07/06 01:07:33;;;;;;;2.55;0.80;;;14.30;99.90;;;;;;5068739;28;20135;-67
2022/07/06 01:09:59;;;;;;;3.22;0.40;;;14.30;99.90;;;;;;5082221;28;20040;-67
2022/07/06 01:12:25;;;;;;;3.10;0.43;;;14.30;99.90;;;;;;5084268;28;20035;-67
2022/07/06 01:14:51;;;;;;;4.20;0.65;;;14.40;99.90;;;;;;5082496;28;20040;-68
2022/07/06 01:17:21;;;;;;;5.25;1.02;;;14.30;99.90;;;;;;5067111;28;20044;-67
2022/07/06 01:19:46;;;;;;;5.50;0.57;;;14.30;99.90;;;;;;5083803;28;20047;-67
2022/07/06 01:22:12;;;;;;;2.08;1.00;;;14.20;99.90;;;;;;5085917;28;20024;-67
2022/07/06 01:24:38;;;;;;;1.88;0.40;;;14.30;99.90;;;;;;5080649;28;20044;-67
2022/07/06 01:27:05;;;;;;;4.28;1.08;;;14.30;99.90;;;;;;5064794;28;20050;-67
2022/07/06 01:29:34;;;;;;;3.80;0.55;;;14.20;99.90;;;;;;5060391;28;20048;-67
2022/07/06 01:32:01;;;;;;;3.70;1.05;;;14.20;99.90;;;;;;5081524;28;20036;-67
2022/07/06 01:34:27;;;;;;;4.00;1.30;;;14.20;99.90;;;;;;5082994;28;20040;-67
2022/07/06 01:36:52;;;;;;;4.65;0.80;;;14.20;99.90;;;;;;5079611;28;20047;-67
2022/07/06 01:39:18;;;;;;;3.40;0.88;;;14.20;99.90;;;;;;5080428;28;20043;-67
2022/07/06 01:41:44;;;;;;;2.30;0.60;;;14.20;99.90;;;;;;5084163;28;20167;-67
2022/07/06 01:44:10;;;;;;;3.70;0.70;;;13.70;99.90;;;;;;5062159;28;20044;-67
2022/07/06 01:46:36;;;;;;;3.30;0.60;;;14.10;99.90;;;;;;5061159;28;20556;-67
2022/07/06 01:49:02;;;;;;;7.13;0.82;;;14.10;99.90;;;;;;5062099;28;20044;-67
2022/07/06 01:51:27;;;;;;;4.53;0.63;;;14.10;99.90;;;;;;5081276;28;20636;-67
2022/07/06 01:53:53;;;;;;;3.53;0.50;;;14.00;99.90;;;;;;5081727;28;20107;-67
2022/07/06 01:56:19;;;;;;;6.95;0.75;;;14.10;99.90;;;;;;5084228;28;20071;-66
2022/07/06 01:58:47;;;;;;;5.07;0.65;;;14.10;99.90;;;;;;5061524;28;20043;-67
2022/07/06 02:01:15;;;;;;;6.35;1.48;;;14.00;99.90;;;;;;5063932;28;20482;-67
2022/07/06 02:03:41;;;;;;;2.75;1.10;;;14.10;99.90;;;;;;5081061;28;20552;-67
2022/07/06 02:06:07;;;;;;;4.05;0.65;;;14.10;99.90;;;;;;5064793;28;20087;-67
2022/07/06 02:08:34;;;;;;;1.95;0.70;;;14.10;99.90;;;;;;5077812;28;20398;-67
2022/07/06 02:11:00;;;;;;;5.38;0.80;;;14.10;99.90;;;;;;5065174;28;20692;-67
2022/07/06 02:13:25;;;;;;;3.47;0.65;;;14.10;99.90;;;;;;5082320;28;20028;-67
2022/07/06 02:15:51;;;;;;;5.35;0.93;;;14.10;99.90;;;;;;5082029;28;20032;-67
2022/07/06 02:18:17;;;;;;;3.08;0.68;;;14.10;99.90;;;;;;5082156;28;20401;-67
2022/07/06 02:20:43;;;;;;;4.55;1.08;;;14.10;99.90;;;;;;5082052;28;20044;-67
2022/07/06 02:23:08;;;;;;;1.58;0.50;;;14.10;99.90;;;;;;5065484;28;20136;-67
2022/07/06 02:25:34;;;;;;;6.93;0.70;;;14.10;99.90;;;;;;5067016;28;20089;-67
2022/07/06 02:27:59;;;;;;;2.92;0.63;;;14.10;99.90;;;;;;5063714;28;20045;-67
2022/07/06 02:30:25;;;;;;;4.32;0.68;;;14.00;99.90;;;;;;5064781;28;20051;-67
2022/07/06 02:32:51;;;;;;;6.32;0.85;;;14.00;99.90;;;;;;5063564;28;20096;-67
2022/07/06 02:35:17;;;;;;;5.43;0.60;;;14.00;99.90;;;;;;5064293;28;20048;-67
2022/07/06 02:37:42;;;;;;;2.88;0.50;;;14.00;99.90;;;;;;5063584;28;20031;-67
2022/07/06 02:40:09;;;;;;;4.47;0.82;;;14.00;99.90;;;;;;5081142;28;20448;-67
2022/07/06 02:42:35;;;;;;;3.78;0.95;;;14.00;99.90;;;;;;5083631;28;20033;-68
2022/07/06 02:45:01;;;;;;;3.25;1.23;;;14.10;99.90;;;;;;5071824;28;20044;-67
2022/07/06 02:47:26;;;;;;;3.55;0.60;;;14.10;99.90;;;;;;5089386;28;20039;-67
2022/07/06 02:49:52;;;;;;;1.98;0.45;;;14.10;99.90;;;;;;5084743;28;20436;-66
2022/07/06 02:52:19;;;;;;;3.80;0.57;;;14.10;99.90;;;;;;5081807;28;20076;-67
2022/07/06 02:54:45;;;;;;;2.13;0.47;;;14.10;99.90;;;;;;5084994;28;20567;-66
2022/07/06 02:57:10;;;;;;;3.78;0.60;;;14.10;99.90;;;;;;5082917;28;20123;-67
2022/07/06 02:59:37;;;;;;;5.88;0.60;;;14.10;99.90;;;;;;5081486;28;20051;-67
2022/07/06 03:02:05;;;;;;;4.28;0.55;;;14.10;99.90;;;;;;5063781;28;20048;-67
2022/07/06 03:04:31;;;;;;;3.58;0.50;;;14.10;99.90;;;;;;5062829;28;20109;-67
2022/07/06 03:06:57;;;;;;;2.80;1.05;;;14.20;99.90;;;;;;5081725;28;20131;-67
2022/07/06 03:09:22;;;;;;;5.15;0.57;;;14.10;99.90;;;;;;5081163;28;20040;-67
2022/07/06 03:11:48;;;;;;;3.42;0.50;;;14.20;99.90;;;;;;5067043;28;20638;-67
2022/07/06 03:14:14;;;;;;;4.47;0.50;;;14.20;99.90;;;;;;5077541;28;20562;-67
2022/07/06 03:16:39;;;;;;;3.05;0.57;;;14.20;99.90;;;;;;5063336;28;20044;-67
2022/07/06 03:19:06;;;;;;;3.70;0.57;;;14.20;99.90;;;;;;5081883;28;20048;-67
2022/07/06 03:21:32;;;;;;;5.13;1.05;;;14.20;99.90;;;;;;5063733;28;20075;-66
2022/07/06 03:23:57;;;;;;;2.50;0.60;;;14.20;99.90;;;;;;5061876;28;20135;-66
2022/07/06 03:26:23;;;;;;;3.35;0.50;;;14.30;99.90;;;;;;5077971;28;20039;-66
2022/07/06 03:28:49;;;;;;;3.17;0.82;;;14.30;99.90;;;;;;5060801;28;20044;-67
2022/07/06 03:31:14;;;;;;;3.10;0.40;;;14.30;99.90;;;;;;5080010;28;20028;-66
2022/07/06 03:33:40;;;;;;;3.25;0.50;;;14.20;99.90;;;;;;5062314;28;20032;-67
2022/07/06 03:36:06;;;;;;;1.13;0.30;;;14.30;99.90;;;;;;5082894;28;21268;-66
2022/07/06 03:38:31;;;;;;;4.10;0.32;;;14.30;99.90;;;;;;5064349;28;20036;-67
2022/07/06 03:40:57;;;;;;;5.20;0.57;;;14.30;99.90;;;;;;5079844;28;20093;-67
2022/07/06 03:43:22;;;;;;;3.42;0.65;;;14.30;99.90;;;;;;5063178;28;20032;-67
2022/07/06 03:45:48;;;;;;;3.28;0.77;;;14.30;99.90;;;;;;5079773;28;20784;-66
2022/07/06 03:48:14;;;;;;;3.33;0.77;;;14.30;99.90;;;;;;5062797;28;20048;-67
2022/07/06 03:50:39;;;;;;;5.45;0.47;;;14.40;99.90;;;;;;5064628;28;20036;-67
2022/07/06 03:53:05;;;;;;;3.92;0.80;;;14.40;99.90;;;;;;5081512;28;20057;-67
2022/07/06 03:55:30;;;;;;;2.83;0.45;;;14.40;99.90;;;;;;5083291;28;20133;-67
2022/07/06 03:57:56;;;;;;;3.72;0.70;;;14.40;99.90;;;;;;5060580;28;20568;-67
2022/07/06 04:00:22;;;;;;;3.42;0.75;;;14.50;99.90;;;;;;5063457;28;20047;-67
2022/07/06 04:02:48;;;;;;;3.58;0.40;;;14.50;99.90;;;;;;5063712;28;20090;-67
2022/07/06 04:05:13;;;;;;;3.72;0.70;;;14.60;99.90;;;;;;5063661;28;20098;-67
2022/07/06 04:07:39;;;;;;;4.38;0.65;;;14.70;99.90;;;;;;5072775;28;20036;-67
2022/07/06 04:10:05;;;;;;;2.78;0.60;;;14.80;99.90;;;;;;5071533;28;20040;-66
2022/07/06 04:12:31;;;;;;;4.18;0.60;;;14.80;99.90;;;;;;5064374;28;20044;-67
2022/07/06 04:14:57;;;;;;;4.05;0.52;;;15.00;99.90;;;;;;5065837;28;20044;-67
2022/07/06 04:20:08;;;;;;;6.88;1.05;;;15.20;99.90;;;;;;5086842;28;20044;-67
2022/07/06 04:22:37;;;;;;;5.38;0.65;;;15.30;99.90;;;;;;5067116;28;20051;-67
2022/07/06 04:25:04;;;;;;;6.57;0.45;;;15.50;99.90;;;;;;5086683;28;20032;-67
2022/07/06 04:27:29;;;;;;;2.42;0.40;;;15.80;99.90;;;;;;5065260;28;20051;-67
2022/07/06 04:29:55;;;;;;;4.07;0.50;;;16.20;99.90;;;;;;5086817;28;20032;-67
2022/07/06 04:32:20;;;;;;;2.97;0.43;;;17.40;99.90;;;;;;5063807;28;20036;-67
2022/07/06 04:34:46;;;;;;;2.53;0.35;;;18.70;99.90;;;;;;5084516;28;20126;-67
2022/07/06 04:37:12;;;;;;;2.05;0.30;;;20.00;99.90;;;;;;5064266;28;20055;-67
2022/07/06 04:39:37;;;;;;;2.70;0.30;;;21.10;99.90;;;;;;5082532;28;20040;-67
2022/07/06 04:42:03;;;;;;;2.67;0.50;;;21.80;99.90;;;;;;5062882;28;20040;-67
2022/07/06 04:44:29;;;;;;;4.43;0.98;;;22.40;99.90;;;;;;5083158;28;20040;-67
2022/07/06 04:46:54;;;;;;;2.80;0.60;;;23.00;99.90;;;;;;5063142;28;20055;-67
2022/07/06 04:49:20;;;;;;;3.22;0.35;;;23.30;99.90;;;;;;5061957;28;20705;-67
2022/07/06 04:51:45;;;;;;;4.32;0.32;;;23.10;99.90;;;;;;5079408;28;20040;-67
2022/07/06 04:54:12;;;;;;;4.13;0.50;;;23.30;99.90;;;;;;5081863;28;20097;-67
2022/07/06 04:56:38;;;;;;;2.42;0.50;;;24.10;99.90;;;;;;5063127;28;20594;-67
2022/07/06 04:59:03;;;;;;;1.98;0.50;;;24.50;99.90;;;;;;5075857;28;20048;-68
2022/07/06 05:01:29;;;;;;;3.72;0.65;;;25.40;99.90;;;;;;5079751;28;20054;-68
2022/07/06 05:03:55;;;;;;;4.28;0.50;;;25.50;99.90;;;;;;5063380;28;20047;-68
2022/07/06 05:06:20;;;;;;;6.75;1.50;;;26.00;99.90;;;;;;5065432;28;20467;-68
2022/07/06 05:08:46;;;;;;;2.50;0.45;;;26.60;99.90;;;;;;5069312;28;20072;-68
2022/07/06 05:11:12;;;;;;;2.45;0.60;;;27.20;99.00;;;;;;5069204;28;20051;-68
2022/07/06 05:13:37;;;;;;;3.03;0.47;;;26.50;98.60;;;;;;5050851;28;20028;-68
2022/07/06 05:16:03;;;;;;;2.25;0.60;;;25.90;98.50;;;;;;5083433;28;20044;-68
2022/07/06 05:18:30;;;;;;;2.25;0.50;;;24.90;98.70;;;;;;5087404;28;20043;-68
2022/07/06 05:20:55;;;;;;;4.78;0.50;;;25.50;99.10;;;;;;5087554;28;20378;-68
2022/07/06 05:23:21;;;;;;;4.50;0.55;;;26.50;98.60;;;;;;5082054;28;20082;-68
2022/07/06 05:25:47;;;;;;;1.42;0.47;;;27.60;97.80;;;;;;5085565;28;20121;-69
2022/07/06 05:28:12;;;;;;;3.40;0.68;;;28.70;97.10;;;;;;5068300;28;20514;-68
2022/07/06 05:30:38;;;;;;;2.95;0.40;;;28.30;95.50;;;;;;5085540;28;20028;-68
2022/07/06 05:33:03;;;;;;;2.17;0.60;;;26.60;95.10;;;;;;5067496;28;20036;-66
2022/07/06 05:35:29;;;;;;;3.60;0.60;;;25.20;95.80;;;;;;5088613;28;20056;-65
2022/07/06 05:37:55;;;;;;;4.22;0.70;;;24.00;96.90;;;;;;5065802;28;20136;-65
2022/07/06 05:40:20;;;;;;;3.83;0.47;;;22.80;98.10;;;;;;5086781;28;20036;-64
2022/07/06 05:42:46;;;;;;;3.58;0.73;;;21.80;99.40;;;;;;5068631;28;20058;-65
2022/07/06 05:45:12;;;;;;;2.17;0.38;;;21.10;99.90;;;;;;5085974;28;20044;-66
2022/07/06 05:50:22;;;;;;;4.80;0.57;;;20.00;99.90;;;;;;5066026;28;20035;-65
2022/07/06 05:53:00;;;;;;;3.75;0.43;;;19.40;99.90;;;;;;5077729;28;20367;-65
2022/07/06 05:55:26;;;;;;;2.28;0.30;;;19.10;99.90;;;;;;5081932;28;20176;-65
2022/07/06 05:57:53;;;;;;;4.55;0.82;;;18.80;99.90;;;;;;5067483;28;20051;-65
2022/07/06 06:00:21;;;;;;;2.95;0.38;;;18.50;99.90;;;;;;5083301;28;20063;-65
2022/07/06 06:02:47;;;;;;;2.03;0.40;;;18.40;99.90;;;;;;5070419;28;20055;-65
2022/07/06 06:05:14;;;;;;;3.88;0.45;;;18.30;99.90;;;;;;5082888;28;20417;-65
2022/07/06 06:07:40;;;;;;;6.82;0.68;;;18.10;99.90;;;;;;5081287;28;20028;-65
2022/07/06 06:10:11;;;;;;;4.38;0.32;;;17.90;99.90;;;;;;5084187;28;20036;-65
2022/07/06 06:12:37;;;;;;;4.78;0.30;;;17.80;99.90;;;;;;5063091;28;20040;-65
2022/07/06 06:15:04;;;;;;;13.98;0.43;;;17.60;99.90;;;;;;5084993;28;20501;-64
2022/07/06 06:17:31;;;;;;;3.42;0.40;;;17.50;99.90;;;;;;5060483;28;20066;-65
2022/07/06 06:19:57;;;;;;;2.13;0.28;;;17.40;99.90;;;;;;5080951;28;20044;-65
2022/07/06 06:22:23;;;;;;;3.45;0.50;;;17.30;99.90;;;;;;5081120;28;20128;-65
2022/07/06 06:24:49;;;;;;;3.13;1.10;;;17.30;99.90;;;;;;5085129;28;20119;-65
2022/07/06 06:27:14;;;;;;;5.57;0.65;;;17.20;99.90;;;;;;5080861;28;20062;-65
2022/07/06 06:29:41;;;;;;;1.90;0.20;;;17.10;99.90;;;;;;5082895;28;20044;-65
2022/07/06 06:32:07;;;;;;;4.15;0.30;;;17.10;99.90;;;;;;5084312;28;20058;-66
2022/07/06 06:34:33;;;;;;;5.72;0.55;;;17.10;99.90;;;;;;5082880;28;20044;-67
2022/07/06 06:36:59;;;;;;;2.65;0.30;;;17.10;99.90;;;;;;5084694;28;20074;-67
2022/07/06 06:39:25;;;;;;;4.18;0.77;;;17.10;99.90;;;;;;5074455;28;20035;-67
2022/07/06 06:41:51;;;;;;;3.15;0.38;;;17.10;99.90;;;;;;5083399;28;20590;-67
2022/07/06 06:44:17;;;;;;;4.15;0.68;;;17.10;99.90;;;;;;5082349;28;20100;-67
2022/07/06 06:46:43;;;;;;;3.40;0.40;;;17.10;99.90;;;;;;5082112;28;20041;-67
2022/07/06 06:49:10;;;;;;;2.35;0.70;;;17.10;99.90;;;;;;5062253;28;20054;-67
2022/07/06 06:51:37;;;;;;;3.63;0.45;;;17.10;99.90;;;;;;5079216;28;20397;-67
2022/07/06 06:54:03;;;;;;;6.80;0.50;;;17.10;99.90;;;;;;5061513;28;20074;-67
2022/07/06 06:56:28;;;;;;;3.33;0.40;;;17.00;99.90;;;;;;5078918;28;20110;-67
2022/07/06 06:58:54;;;;;;;2.90;0.30;;;17.00;99.90;;;;;;5062108;28;20047;-67
2022/07/06 07:01:20;;;;;;;2.80;0.32;;;17.00;99.90;;;;;;5063714;28;20043;-67
2022/07/06 07:03:45;;;;;;;4.18;0.55;;;17.00;99.90;;;;;;5081845;28;20041;-67
2022/07/06 07:06:11;;;;;;;5.03;0.30;;;17.00;99.90;;;;;;5072768;28;20130;-67
2022/07/06 07:08:36;;;;;;;2.42;0.30;;;16.90;99.90;;;;;;5082116;28;20032;-67
2022/07/06 07:11:02;;;;;;;7.50;0.60;;;16.90;99.90;;;;;;5076611;28;20041;-67
2022/07/06 07:13:28;;;;;;;1.60;0.20;;;16.90;99.90;;;;;;5062857;28;20036;-67
2022/07/06 07:15:53;;;;;;;3.03;0.40;;;17.00;99.90;;;;;;5081659;28;20032;-67
2022/07/06 07:18:19;;;;;;;3.55;0.80;;;17.20;99.90;;;;;;5066684;28;20493;-67
2022/07/06 07:20:44;;;;;;;3.45;0.55;;;17.40;99.90;;;;;;5078304;28;20042;-67
2022/07/06 07:23:10;;;;;;;4.00;0.32;;;17.60;99.90;;;;;;5085153;28;20035;-67
2022/07/06 07:25:38;;;;;;;1.52;0.15;;;17.80;99.90;;;;;;5076649;28;20852;-67
2022/07/06 07:28:04;;;;;;;2.10;0.55;;;18.30;99.90;;;;;;5081739;28;20044;-67
2022/07/06 07:30:30;;;;;;;5.28;0.60;;;18.90;99.90;;;;;;5086184;28;20443;-67
2022/07/06 07:32:55;;;;;;;2.72;0.30;;;19.40;99.90;;;;;;5085333;28;20035;-67
2022/07/06 07:35:22;;;;;;;3.50;0.60;;;19.80;99.90;;;;;;5084381;28;20406;-67
2022/07/06 07:37:47;;;;;;;2.28;0.47;;;20.10;99.90;;;;;;5083944;28;20042;-67
2022/07/06 07:40:13;;;;;;;2.95;0.43;;;20.40;99.90;;;;;;5085025;28;20040;-67
2022/07/06 07:42:40;;;;;;;3.08;0.40;;;20.60;99.90;;;;;;5086140;28;20024;-67
2022/07/06 07:45:07;;;;;;;5.18;0.90;;;20.90;99.90;;;;;;5073768;28;20042;-67
2022/07/06 07:47:33;;;;;;;2.33;0.40;;;21.10;99.90;;;;;;5066041;28;20046;-67
2022/07/06 07:49:59;;;;;;;3.40;0.30;;;21.30;99.90;;;;;;5069860;28;20135;-67
2022/07/06 07:52:24;;;;;;;2.00;0.30;;;21.30;99.90;;;;;;5084290;28;20036;-67
2022/07/06 07:54:50;;;;;;;2.10;0.50;;;21.40;99.90;;;;;;5088490;28;20100;-67
2022/07/06 07:57:15;;;;;;;5.05;0.57;;;21.60;99.90;;;;;;5086300;28;20032;-67
2022/07/06 07:59:42;;;;;;;2.00;0.40;;;21.40;99.90;;;;;;5089697;28;20040;-67
2022/07/06 08:02:07;;;;;;;3.22;0.40;;;21.40;99.90;;;;;;5077580;28;20128;-67
2022/07/06 08:04:33;;;;;;;1.83;0.55;;;21.50;99.90;;;;;;5084237;28;20043;-67
2022/07/06 08:06:59;;;;;;;1.48;0.52;;;21.30;99.90;;;;;;5086101;28;20032;-67
2022/07/06 08:09:24;;;;;;;1.35;0.30;;;21.20;99.90;;;;;;5089474;28;20036;-67
2022/07/06 08:11:50;;;;;;;4.97;0.57;;;21.10;99.90;;;;;;5084619;28;20124;-67
2022/07/06 08:14:16;;;;;;;6.78;0.50;;;21.10;99.90;;;;;;5067181;28;20036;-67
2022/07/06 08:16:42;;;;;;;4.70;0.47;;;21.20;99.90;;;;;;5085742;28;20024;-67
2022/07/06 08:19:08;;;;;;;2.58;0.30;;;21.30;99.90;;;;;;5086377;28;20035;-67
2022/07/06 08:21:33;;;;;;;2.42;0.20;;;21.30;99.90;;;;;;5084850;28;20041;-67
2022/07/06 08:24:00;;;;;;;2.67;0.30;;;21.30;99.90;;;;;;5083967;28;20122;-67
2022/07/06 08:26:26;;;;;;;2.25;0.30;;;21.40;99.90;;;;;;5069022;28;20128;-67
2022/07/06 08:28:51;;;;;;;4.13;0.40;;;21.30;99.90;;;;;;5080760;28;20048;-67
2022/07/06 08:31:17;;;;;;;3.97;0.30;;;21.10;99.90;;;;;;5082824;28;20060;-67
2022/07/06 08:33:43;;;;;;;2.90;0.32;;;20.80;99.90;;;;;;5065373;28;20659;-67
2022/07/06 08:36:08;;;;;;;1.77;0.20;;;20.60;99.90;;;;;;5087757;28;20036;-67
2022/07/06 08:38:34;;;;;;;2.92;0.52;;;20.40;99.90;;;;;;5084700;28;20044;-67
2022/07/06 08:41:00;;;;;;;1.17;0.30;;;20.30;99.90;;;;;;5087651;28;20389;-67
2022/07/06 08:43:25;;;;;;;1.75;0.22;;;20.20;99.90;;;;;;5062968;28;20096;-67
2022/07/06 08:45:53;;;;;;;5.25;0.45;;;20.30;99.90;;;;;;5084772;28;20126;-67
2022/07/06 08:48:21;;;;;;;2.00;0.28;;;20.50;99.90;;;;;;5087280;28;20047;-67
2022/07/06 08:50:47;;;;;;;2.03;0.20;;;20.70;99.90;;;;;;5064895;28;20048;-67
2022/07/06 08:53:12;;;;;;;2.65;0.20;;;20.90;99.90;;;;;;5081734;28;20117;-67
2022/07/06 08:55:40;;;;;;;2.22;0.20;;;21.10;99.90;;;;;;5066624;28;20036;-67
2022/07/06 08:58:07;;;;;;;1.17;0.20;;;21.40;99.90;;;;;;5064317;28;20044;-67
2022/07/06 09:00:33;;;;;;;1.02;0.10;;;21.70;99.90;;;;;;5085564;28;20032;-67
2022/07/06 09:03:00;;;;;;;3.33;0.20;;;21.90;99.90;;;;;;5087676;28;20032;-67
2022/07/06 09:05:26;;;;;;;0.60;0.20;;;22.40;99.90;;;;;;5082893;28;20081;-67
2022/07/06 09:07:53;;;;;;;1.10;0.28;;;22.70;99.90;;;;;;5079949;28;20414;-67
2022/07/06 09:10:20;;;;;;;3.10;0.50;;;23.00;99.90;;;;;;5066393;28;20575;-67
2022/07/06 09:12:46;;;;;;;2.88;0.20;;;23.30;99.70;;;;;;5068957;28;20422;-67
2022/07/06 09:15:12;;;;;;;0.75;0.13;;;23.50;99.70;;;;;;5066719;28;20063;-67
2022/07/06 09:17:42;;;;;;;1.70;0.20;;;23.40;97.30;;;;;;5066805;28;20466;-67
2022/07/06 09:20:09;;;;;;;6.75;0.40;;;23.50;97.40;;;;;;5083691;28;20489;-67
2022/07/06 09:22:35;;;;;;;1.05;0.50;;;23.50;98.20;;;;;;5071696;28;20039;-67
2022/07/06 09:25:04;;;;;;;1.40;0.30;;;23.40;98.30;;;;;;5062980;28;20068;-67
2022/07/06 09:27:30;;;;;;;3.13;0.20;;;23.60;98.50;;;;;;5082038;28;20115;-67
2022/07/06 09:30:00;;;;;;;3.45;0.20;;;23.50;97.90;;;;;;5064670;28;20058;-67
2022/07/06 09:32:26;;;;;;;1.05;0.20;;;23.30;98.00;;;;;;5084640;28;20099;-67
2022/07/06 09:34:51;;;;;;;1.00;0.35;;;23.20;98.30;;;;;;5083700;28;20568;-67
2022/07/06 09:37:17;;;;;;;2.25;0.43;;;23.30;98.60;;;;;;5067336;28;20524;-67
2022/07/06 09:39:44;;;;;;;2.42;0.20;;;23.40;98.70;;;;;;5063982;28;20410;-67
2022/07/06 09:42:09;;;;;;;2.65;0.30;;;23.40;98.70;;;;;;5067412;28;20134;-67
2022/07/06 09:44:40;;;;;;;2.08;0.38;;;23.20;98.70;;;;;;5081725;28;20074;-67
2022/07/06 09:47:08;;;;;;;1.83;0.20;;;23.10;98.60;;;;;;5084338;28;20043;-67
2022/07/06 09:49:34;;;;;;;1.65;0.20;;;23.40;98.40;;;;;;5066685;28;20055;-67
2022/07/06 09:52:06;;;;;;;3.03;0.60;;;23.60;98.70;;;;;;5086468;28;20040;-67
2022/07/06 09:54:34;;;;;;;4.22;0.22;;;23.50;98.00;;;;;;5063248;28;20044;-67
2022/07/06 09:57:01;;;;;;;1.63;0.20;;;23.40;98.20;;;;;;5064881;28;20035;-67
2022/07/06 09:59:28;;;;;;;1.52;0.50;;;23.30;98.30;;;;;;5082829;28;20127;-67
2022/07/06 10:01:56;;;;;;;1.55;0.20;;;23.30;97.30;;;;;;5082515;28;20064;-67
2022/07/06 10:04:23;;;;;;;2.67;0.20;;;23.10;96.90;;;;;;5083148;28;20047;-67
2022/07/06 10:06:49;;;;;;;1.77;0.20;;;22.90;97.50;;;;;;5086439;28;20075;-67
2022/07/06 10:09:15;;;;;;;2.10;0.20;;;22.60;97.90;;;;;;5081445;28;20040;-67
2022/07/06 10:11:56;;;;;;;1.38;0.10;;;22.40;98.50;;;;;;5063469;28;20279;-67
2022/07/06 10:14:31;;;;;;;1.42;0.20;;;22.50;98.60;;;;;;5083969;28;20040;-67
2022/07/06 10:16:58;;;;;;;1.70;0.30;;;22.50;99.10;;;;;;5080580;28;20047;-67
2022/07/06 10:19:25;;;;;;;1.95;0.20;;;22.80;99.50;;;;;;5078688;28;20043;-67
2022/07/06 10:21:51;;;;;;;0.98;0.43;;;23.00;98.40;;;;;;5065574;28;20036;-67
2022/07/06 10:24:18;;;;;;;2.67;0.25;;;22.90;98.30;;;;;;5082365;28;20051;-67
2022/07/06 10:26:46;;;;;;;2.90;0.30;;;22.80;98.50;;;;;;5078682;28;20115;-67
2022/07/06 10:29:11;;;;;;;1.63;0.28;;;22.60;98.40;;;;;;5069699;28;20542;-67
2022/07/06 10:31:40;;;;;;;4.72;0.80;;;22.60;98.50;;;;;;5080177;28;20028;-67
2022/07/06 10:34:10;;;;;;;1.77;0.20;;;22.70;99.10;;;;;;5077653;28;20031;-67
2022/07/06 10:36:44;;;;;;;3.20;0.28;;;22.90;99.40;;;;;;5064106;28;20404;-67
2022/07/06 10:41:55;;;;;;;2.45;0.30;;;23.10;99.20;;;;;;5064087;28;20397;-67
2022/07/06 10:44:26;;;;;;;3.22;0.20;;;23.30;99.20;;;;;;5067189;28;20040;-67
2022/07/06 10:46:52;;;;;;;2.38;0.20;;;23.30;99.40;;;;;;5084055;28;20040;-67
2022/07/06 10:49:18;;;;;;;2.53;0.32;;;23.50;98.10;;;;;;5062643;28;20051;-67
2022/07/06 10:51:44;;;;;;;1.85;0.30;;;23.60;98.50;;;;;;5062006;28;20044;-67
2022/07/06 10:54:09;;;;;;;1.67;0.30;;;23.70;97.70;;;;;;5064876;28;20389;-67
2022/07/06 10:56:40;;;;;;;1.23;0.32;;;23.90;98.00;;;;;;5065502;28;20119;-67
2022/07/06 10:59:29;;;;;;;2.28;0.30;;;24.00;98.10;;;;;;5083689;28;20482;-67
2022/07/06 11:02:11;;;;;;;2.47;0.30;;;23.90;97.20;;;;;;5064845;28;20083;-67
2022/07/06 11:04:38;;;;;;;3.30;0.38;;;23.60;96.90;;;;;;5082290;28;20052;-67
2022/07/06 11:07:11;;;;;;;1.50;0.30;;;23.20;97.40;;;;;;5066238;28;20115;-67
2022/07/06 11:09:38;;;;;;;2.63;0.30;;;23.00;97.60;;;;;;5085126;28;20040;-67
2022/07/06 11:12:20;;;;;;;3.42;0.30;;;23.00;97.60;;;;;;5055604;28;20109;-67
2022/07/06 11:14:50;;;;;;;3.35;0.50;;;23.00;98.40;;;;;;5084802;28;20023;-67
2022/07/06 11:17:16;;;;;;;0.93;0.30;;;22.90;97.50;;;;;;5084621;28;20104;-67
2022/07/06 11:19:56;;;;;;;4.47;0.40;;;22.80;97.70;;;;;;5068230;28;20040;-67
2022/07/06 11:22:24;;;;;;;2.88;0.40;;;22.40;97.80;;;;;;5068905;28;20032;-67
2022/07/06 11:24:51;;;;;;;1.92;0.20;;;22.30;98.50;;;;;;5085798;28;20491;-67
2022/07/06 11:27:17;;;;;;;1.45;0.30;;;22.30;98.50;;;;;;5084920;28;20485;-67
2022/07/06 11:29:44;;;;;;;1.92;0.28;;;22.40;98.50;;;;;;5083708;28;20052;-67
2022/07/06 11:32:13;;;;;;;3.03;0.45;;;22.60;98.60;;;;;;5075633;28;20401;-67
2022/07/06 11:34:44;;;;;;;1.13;0.30;;;22.60;97.90;;;;;;5083165;28;20081;-67
2022/07/06 11:37:15;;;;;;;3.63;0.28;;;22.50;97.90;;;;;;5086184;28;20131;-67
2022/07/06 11:39:43;;;;;;;3.50;0.55;;;22.30;98.60;;;;;;5087379;28;20063;-67
2022/07/06 11:42:10;;;;;;;1.23;0.20;;;22.00;98.80;;;;;;5086235;28;20056;-67
2022/07/06 11:44:37;;;;;;;2.53;0.35;;;22.10;99.50;;;;;;5081914;28;20040;-67
2022/07/06 11:47:04;;;;;;;7.10;0.52;;;22.20;99.00;;;;;;5064348;28;20067;-67
2022/07/06 11:49:34;;;;;;;3.97;0.30;;;22.30;98.20;;;;;;5084117;28;20044;-67
2022/07/06 11:52:05;;;;;;;2.90;0.30;;;22.60;96.90;;;;;;5086850;28;20490;-67
2022/07/06 11:54:32;;;;;;;3.95;0.40;;;22.50;97.60;;;;;;5086251;28;20048;-67
2022/07/06 11:56:59;;;;;;;1.58;0.30;;;22.20;97.50;;;;;;5080770;28;20490;-67
2022/07/06 11:59:27;;;;;;;3.08;0.40;;;22.20;99.40;;;;;;5065101;28;20122;-67
2022/07/06 12:02:05;;;;;;;2.13;0.20;;;22.50;99.60;;;;;;5080899;28;20063;-67
2022/07/06 12:04:33;;;;;;;2.03;0.98;;;22.70;99.30;;;;;;5085588;28;20178;-67
2022/07/06 12:07:05;;;;;;;2.40;0.40;;;23.10;99.10;;;;;;5087149;28;20131;-67
2022/07/06 12:09:32;;;;;;;1.17;0.30;;;23.30;97.90;;;;;;5088433;28;20068;-67
2022/07/06 12:11:57;;;;;;;3.90;0.40;;;23.20;97.10;;;;;;5064218;28;20391;-67
2022/07/06 12:14:23;;;;;;;3.25;0.40;;;23.10;97.30;;;;;;5084562;28;20036;-67
2022/07/06 12:16:50;;;;;;;5.15;0.40;;;23.20;98.80;;;;;;5082923;28;20042;-67
2022/07/06 12:19:16;;;;;;;5.97;0.30;;;23.50;98.20;;;;;;5083199;28;20040;-67
2022/07/06 12:21:44;;;;;;;2.45;0.50;;;23.50;96.50;;;;;;5084386;28;20036;-67
2022/07/06 12:24:09;;;;;;;3.38;0.50;;;23.50;97.10;;;;;;5078684;28;20460;-67
2022/07/06 12:26:40;;;;;;;1.38;0.20;;;23.20;97.00;;;;;;5083658;28;20040;-67
2022/07/06 12:29:10;;;;;;;1.60;0.40;;;23.00;97.50;;;;;;5086775;28;20379;-67
2022/07/06 12:31:38;;;;;;;2.40;0.63;;;22.80;98.30;;;;;;5083896;28;20106;-67
2022/07/06 12:34:05;;;;;;;2.42;0.20;;;22.80;98.10;;;;;;5086653;28;20127;-67
2022/07/06 12:36:31;;;;;;;2.33;0.45;;;22.70;97.50;;;;;;5064035;28;20079;-67
2022/07/06 12:38:57;;;;;;;2.97;0.60;;;22.60;97.20;;;;;;5066206;28;20127;-67
2022/07/06 12:41:34;;;;;;;6.47;0.60;;;22.70;97.70;;;;;;5082094;28;20063;-67
2022/07/06 12:44:08;;;;;;;2.08;0.40;;;23.00;99.00;;;;;;5071863;28;20052;-67
2022/07/06 12:46:35;;;;;;;3.95;0.52;;;23.20;97.90;;;;;;5081861;28;20386;-67
2022/07/06 12:49:09;;;;;;;5.15;0.60;;;23.40;96.80;;;;;;5069558;28;20040;-67
2022/07/06 12:51:53;;;;;;;41.60;2.05;;;23.30;96.20;;;;;;5083371;28;20051;-67
2022/07/06 12:54:20;;;;;;;3.88;0.40;;;23.50;95.00;;;;;;5087018;28;20398;-67